sensor_id;sensor_type;location;lat;lon;timestamp;pressure;altitude;pressure_sealevel;temperature;humidity
65756;BME280;69208;47.502;18.940;2023-05-11T00:00:23;98216.63;;;12.31;55.08
65756;BME280;69208;47.502;18.940;2023-05-11T00:01:27;98214.81;;;12.40;54.86
65756;BME280;69208;47.502;18.940;2023-05-11T00:02:30;98216.03;;;12.34;55.21
65756;BME280;69208;47.502;18.940;2023-05-11T00:03:34;98207.12;;;12.21;55.76
65756;BME280;69208;47.502;18.940;2023-05-11T00:04:37;98213.41;;;12.34;55.45
65756;BME280;69208;47.502;18.940;2023-05-11T00:05:40;98211.53;;;12.35;55.47
65756;BME280;69208;47.502;18.940;2023-05-11T00:06:43;98215.38;;;12.28;55.81
65756;BME280;69208;47.502;18.940;2023-05-11T00:07:46;98209.47;;;12.23;56.30
65756;BME280;69208;47.502;18.940;2023-05-11T00:08:49;98208.22;;;12.20;56.28
65756;BME280;69208;47.502;18.940;2023-05-11T00:09:52;98216.16;;;12.29;55.99
65756;BME280;69208;47.502;18.940;2023-05-11T00:10:55;98214.00;;;12.31;55.98
65756;BME280;69208;47.502;18.940;2023-05-11T00:11:58;98215.31;;;12.42;55.88
65756;BME280;69208;47.502;18.940;2023-05-11T00:13:01;98210.81;;;12.43;55.68
65756;BME280;69208;47.502;18.940;2023-05-11T00:14:04;98215.88;;;12.39;55.74
65756;BME280;69208;47.502;18.940;2023-05-11T00:15:07;98217.28;;;12.37;55.82
65756;BME280;69208;47.502;18.940;2023-05-11T00:16:10;98212.69;;;12.42;55.78
65756;BME280;69208;47.502;18.940;2023-05-11T00:17:13;98214.22;;;12.43;55.87
65756;BME280;69208;47.502;18.940;2023-05-11T00:18:16;98212.47;;;12.39;56.09
65756;BME280;69208;47.502;18.940;2023-05-11T00:19:18;98206.91;;;12.32;56.58
65756;BME280;69208;47.502;18.940;2023-05-11T00:20:21;98210.78;;;12.34;56.70
65756;BME280;69208;47.502;18.940;2023-05-11T00:21:25;98208.78;;;12.40;56.73
65756;BME280;69208;47.502;18.940;2023-05-11T00:22:28;98209.25;;;12.42;56.68
65756;BME280;69208;47.502;18.940;2023-05-11T00:23:31;98213.12;;;12.44;56.43
65756;BME280;69208;47.502;18.940;2023-05-11T00:24:34;98211.47;;;12.48;56.46
65756;BME280;69208;47.502;18.940;2023-05-11T00:25:37;98206.06;;;12.53;56.28
65756;BME280;69208;47.502;18.940;2023-05-11T00:26:40;98212.22;;;12.49;56.22
65756;BME280;69208;47.502;18.940;2023-05-11T00:27:43;98205.56;;;12.43;56.57
65756;BME280;69208;47.502;18.940;2023-05-11T00:28:47;98207.31;;;12.56;56.25
65756;BME280;69208;47.502;18.940;2023-05-11T00:29:50;98207.88;;;12.44;56.51
65756;BME280;69208;47.502;18.940;2023-05-11T00:30:57;98200.50;;;12.55;56.28
65756;BME280;69208;47.502;18.940;2023-05-11T00:32:00;98203.38;;;12.45;56.61
65756;BME280;69208;47.502;18.940;2023-05-11T00:33:03;98210.41;;;12.58;56.41
65756;BME280;69208;47.502;18.940;2023-05-11T00:34:06;98203.44;;;12.53;56.35
65756;BME280;69208;47.502;18.940;2023-05-11T00:35:10;98204.97;;;12.46;56.79
65756;BME280;69208;47.502;18.940;2023-05-11T00:36:13;98199.53;;;12.51;56.80
65756;BME280;69208;47.502;18.940;2023-05-11T00:37:16;98203.75;;;12.52;56.79
65756;BME280;69208;47.502;18.940;2023-05-11T00:38:19;98198.03;;;12.59;56.44
65756;BME280;69208;47.502;18.940;2023-05-11T00:39:22;98194.31;;;12.60;56.24
65756;BME280;69208;47.502;18.940;2023-05-11T00:40:25;98198.81;;;12.59;56.50
65756;BME280;69208;47.502;18.940;2023-05-11T00:41:28;98200.38;;;12.60;56.91
65756;BME280;69208;47.502;18.940;2023-05-11T00:42:31;98198.38;;;12.66;56.38
65756;BME280;69208;47.502;18.940;2023-05-11T00:43:34;98190.19;;;12.67;56.23
65756;BME280;69208;47.502;18.940;2023-05-11T00:44:37;98198.97;;;12.63;56.46
65756;BME280;69208;47.502;18.940;2023-05-11T00:45:40;98200.66;;;12.59;56.36
65756;BME280;69208;47.502;18.940;2023-05-11T00:46:43;98195.13;;;12.60;56.52
65756;BME280;69208;47.502;18.940;2023-05-11T00:47:46;98201.28;;;12.56;56.94
65756;BME280;69208;47.502;18.940;2023-05-11T00:48:49;98198.66;;;12.56;57.22
65756;BME280;69208;47.502;18.940;2023-05-11T00:49:53;98194.59;;;12.49;57.18
65756;BME280;69208;47.502;18.940;2023-05-11T00:50:58;98193.09;;;12.66;56.60
65756;BME280;69208;47.502;18.940;2023-05-11T00:52:01;98197.28;;;12.58;56.75
65756;BME280;69208;47.502;18.940;2023-05-11T00:53:04;98209.28;;;12.50;56.77
65756;BME280;69208;47.502;18.940;2023-05-11T00:54:08;98203.13;;;12.55;56.67
65756;BME280;69208;47.502;18.940;2023-05-11T00:55:19;98199.53;;;12.51;56.89
65756;BME280;69208;47.502;18.940;2023-05-11T00:56:25;98198.00;;;12.50;56.82
65756;BME280;69208;47.502;18.940;2023-05-11T00:57:28;98192.63;;;12.55;56.86
65756;BME280;69208;47.502;18.940;2023-05-11T00:58:34;98197.88;;;12.55;56.87
65756;BME280;69208;47.502;18.940;2023-05-11T00:59:38;98203.47;;;12.62;56.15
65756;BME280;69208;47.502;18.940;2023-05-11T01:00:41;98198.78;;;12.50;56.64
65756;BME280;69208;47.502;18.940;2023-05-11T01:01:44;98198.03;;;12.59;56.59
65756;BME280;69208;47.502;18.940;2023-05-11T01:02:47;98197.59;;;12.65;55.94
65756;BME280;69208;47.502;18.940;2023-05-11T01:03:50;98188.91;;;12.56;56.22
65756;BME280;69208;47.502;18.940;2023-05-11T01:04:54;98191.38;;;12.52;56.07
65756;BME280;69208;47.502;18.940;2023-05-11T01:12:05;98195.88;;;12.52;56.36
65756;BME280;69208;47.502;18.940;2023-05-11T01:13:12;98199.75;;;12.55;56.52
65756;BME280;69208;47.502;18.940;2023-05-11T01:14:41;98193.28;;;12.61;56.05
65756;BME280;69208;47.502;18.940;2023-05-11T01:15:51;98184.78;;;12.64;56.04
65756;BME280;69208;47.502;18.940;2023-05-11T01:16:59;98196.06;;;12.64;55.87
65756;BME280;69208;47.502;18.940;2023-05-11T01:19:40;98194.06;;;12.70;55.55
65756;BME280;69208;47.502;18.940;2023-05-11T01:20:47;98189.09;;;12.68;55.67
65756;BME280;69208;47.502;18.940;2023-05-11T01:21:51;98196.34;;;12.63;55.79
65756;BME280;69208;47.502;18.940;2023-05-11T01:24:31;98194.66;;;12.58;55.98
65756;BME280;69208;47.502;18.940;2023-05-11T01:25:52;98193.72;;;12.54;56.05
65756;BME280;69208;47.502;18.940;2023-05-11T01:28:28;98193.09;;;12.57;55.95
65756;BME280;69208;47.502;18.940;2023-05-11T01:30:50;98191.75;;;12.77;55.38
65756;BME280;69208;47.502;18.940;2023-05-11T01:31:55;98189.91;;;12.78;54.99
65756;BME280;69208;47.502;18.940;2023-05-11T01:33:08;98189.59;;;12.70;55.06
65756;BME280;69208;47.502;18.940;2023-05-11T01:34:21;98198.72;;;12.73;55.15
65756;BME280;69208;47.502;18.940;2023-05-11T01:35:27;98195.03;;;12.83;54.63
65756;BME280;69208;47.502;18.940;2023-05-11T01:36:39;98187.87;;;12.74;54.93
65756;BME280;69208;47.502;18.940;2023-05-11T01:37:53;98195.44;;;12.67;55.00
65756;BME280;69208;47.502;18.940;2023-05-11T01:39:00;98190.09;;;12.81;54.60
65756;BME280;69208;47.502;18.940;2023-05-11T01:40:10;98194.53;;;12.81;54.84
65756;BME280;69208;47.502;18.940;2023-05-11T01:41:17;98189.28;;;12.81;54.96
65756;BME280;69208;47.502;18.940;2023-05-11T01:42:34;98193.13;;;12.74;55.10
65756;BME280;69208;47.502;18.940;2023-05-11T01:43:39;98195.78;;;12.74;55.13
65756;BME280;69208;47.502;18.940;2023-05-11T01:44:43;98192.09;;;12.75;55.17
65756;BME280;69208;47.502;18.940;2023-05-11T01:45:52;98193.34;;;12.78;54.92
65756;BME280;69208;47.502;18.940;2023-05-11T01:46:59;98196.41;;;12.80;54.92
65756;BME280;69208;47.502;18.940;2023-05-11T01:48:06;98188.03;;;12.69;55.11
65756;BME280;69208;47.502;18.940;2023-05-11T01:49:11;98192.81;;;12.67;55.64
65756;BME280;69208;47.502;18.940;2023-05-11T01:50:20;98194.53;;;12.63;55.65
65756;BME280;69208;47.502;18.940;2023-05-11T01:51:32;98186.81;;;12.75;55.24
65756;BME280;69208;47.502;18.940;2023-05-11T01:52:37;98187.28;;;12.69;55.34
65756;BME280;69208;47.502;18.940;2023-05-11T01:53:42;98186.81;;;12.75;55.12
65756;BME280;69208;47.502;18.940;2023-05-11T01:54:47;98197.00;;;12.68;55.33
65756;BME280;69208;47.502;18.940;2023-05-11T01:55:53;98188.97;;;12.73;55.20
65756;BME280;69208;47.502;18.940;2023-05-11T01:56:59;98185.25;;;12.74;54.75
65756;BME280;69208;47.502;18.940;2023-05-11T01:58:04;98197.16;;;12.63;55.17
65756;BME280;69208;47.502;18.940;2023-05-11T01:59:09;98190.66;;;12.69;55.04
65756;BME280;69208;47.502;18.940;2023-05-11T02:00:15;98193.91;;;12.66;55.07
65756;BME280;69208;47.502;18.940;2023-05-11T02:01:19;98193.75;;;12.71;55.09
65756;BME280;69208;47.502;18.940;2023-05-11T02:02:23;98183.88;;;12.77;55.00
65756;BME280;69208;47.502;18.940;2023-05-11T02:03:28;98180.31;;;12.73;54.91
65756;BME280;69208;47.502;18.940;2023-05-11T02:04:34;98190.28;;;12.53;55.43
65756;BME280;69208;47.502;18.940;2023-05-11T02:05:39;98182.62;;;12.74;55.20
65756;BME280;69208;47.502;18.940;2023-05-11T02:06:44;98186.94;;;12.62;55.13
65756;BME280;69208;47.502;18.940;2023-05-11T02:07:50;98183.22;;;12.63;56.18
65756;BME280;69208;47.502;18.940;2023-05-11T02:08:53;98187.44;;;12.72;56.33
65756;BME280;69208;47.502;18.940;2023-05-11T02:09:59;98188.00;;;12.61;56.44
65756;BME280;69208;47.502;18.940;2023-05-11T02:11:03;98179.34;;;12.60;56.14
65756;BME280;69208;47.502;18.940;2023-05-11T02:12:06;98178.28;;;12.61;56.24
65756;BME280;69208;47.502;18.940;2023-05-11T02:13:11;98183.22;;;12.63;55.29
65756;BME280;69208;47.502;18.940;2023-05-11T02:14:17;98182.28;;;12.59;55.12
65756;BME280;69208;47.502;18.940;2023-05-11T02:15:24;98183.81;;;12.60;55.46
65756;BME280;69208;47.502;18.940;2023-05-11T02:16:30;98182.16;;;12.64;55.61
65756;BME280;69208;47.502;18.940;2023-05-11T02:17:34;98165.75;;;12.58;55.24
65756;BME280;69208;47.502;18.940;2023-05-11T02:18:39;98179.66;;;12.59;55.12
65756;BME280;69208;47.502;18.940;2023-05-11T02:19:45;98177.03;;;12.59;55.01
65756;BME280;69208;47.502;18.940;2023-05-11T02:20:49;98174.72;;;12.57;55.21
65756;BME280;69208;47.502;18.940;2023-05-11T02:21:53;98181.03;;;12.56;55.48
65756;BME280;69208;47.502;18.940;2023-05-11T02:22:57;98170.66;;;12.51;55.29
65756;BME280;69208;47.502;18.940;2023-05-11T02:24:04;98176.81;;;12.46;56.15
65756;BME280;69208;47.502;18.940;2023-05-11T02:25:08;98176.19;;;12.41;55.55
65756;BME280;69208;47.502;18.940;2023-05-11T02:26:13;98177.72;;;12.42;55.47
65756;BME280;69208;47.502;18.940;2023-05-11T02:27:18;98167.84;;;12.47;55.38
65756;BME280;69208;47.502;18.940;2023-05-11T02:28:21;98173.25;;;12.42;55.97
65756;BME280;69208;47.502;18.940;2023-05-11T02:29:24;98176.03;;;12.37;56.53
65756;BME280;69208;47.502;18.940;2023-05-11T02:30:31;98170.16;;;12.40;56.35
65756;BME280;69208;47.502;18.940;2023-05-11T02:31:37;98173.84;;;12.31;56.94
65756;BME280;69208;47.502;18.940;2023-05-11T02:32:50;98168.09;;;12.28;56.90
65756;BME280;69208;47.502;18.940;2023-05-11T02:34:08;98172.25;;;12.29;56.60
65756;BME280;69208;47.502;18.940;2023-05-11T02:35:21;98178.28;;;12.30;56.40
65756;BME280;69208;47.502;18.940;2023-05-11T02:36:27;98174.06;;;12.20;56.57
65756;BME280;69208;47.502;18.940;2023-05-11T02:37:33;98166.56;;;12.27;56.16
65756;BME280;69208;47.502;18.940;2023-05-11T02:38:37;98169.75;;;12.16;56.11
65756;BME280;69208;47.502;18.940;2023-05-11T02:39:44;98170.19;;;12.18;56.44
65756;BME280;69208;47.502;18.940;2023-05-11T02:40:50;98172.78;;;12.09;56.50
65756;BME280;69208;47.502;18.940;2023-05-11T02:41:59;98167.84;;;12.07;57.17
65756;BME280;69208;47.502;18.940;2023-05-11T02:43:09;98162.88;;;12.06;57.73
65756;BME280;69208;47.502;18.940;2023-05-11T02:44:14;98170.47;;;12.07;57.05
65756;BME280;69208;47.502;18.940;2023-05-11T02:45:18;98163.19;;;12.04;57.17
65756;BME280;69208;47.502;18.940;2023-05-11T02:46:25;98166.38;;;11.93;57.79
65756;BME280;69208;47.502;18.940;2023-05-11T02:47:32;98163.66;;;12.06;57.25
65756;BME280;69208;47.502;18.940;2023-05-11T02:48:42;98165.78;;;11.96;57.12
65756;BME280;69208;47.502;18.940;2023-05-11T02:49:48;98163.91;;;11.96;57.42
65756;BME280;69208;47.502;18.940;2023-05-11T02:50:57;98167.66;;;12.04;56.34
65756;BME280;69208;47.502;18.940;2023-05-11T02:52:02;98158.66;;;11.96;56.46
65756;BME280;69208;47.502;18.940;2023-05-11T02:53:14;98160.69;;;11.99;56.37
65756;BME280;69208;47.502;18.940;2023-05-11T02:54:19;98162.59;;;12.07;56.60
65756;BME280;69208;47.502;18.940;2023-05-11T02:55:22;98166.59;;;12.05;56.92
65756;BME280;69208;47.502;18.940;2023-05-11T02:56:26;98156.69;;;12.02;56.62
65756;BME280;69208;47.502;18.940;2023-05-11T02:57:29;98160.84;;;12.03;56.06
65756;BME280;69208;47.502;18.940;2023-05-11T02:58:33;98155.97;;;11.88;57.67
65756;BME280;69208;47.502;18.940;2023-05-11T02:59:36;98160.88;;;11.80;58.34
65756;BME280;69208;47.502;18.940;2023-05-11T03:00:39;98159.69;;;11.87;57.10
65756;BME280;69208;47.502;18.940;2023-05-11T03:01:43;98156.31;;;11.86;56.74
65756;BME280;69208;47.502;18.940;2023-05-11T03:02:47;98155.13;;;11.78;57.02
65756;BME280;69208;47.502;18.940;2023-05-11T03:03:50;98161.31;;;11.82;57.85
65756;BME280;69208;47.502;18.940;2023-05-11T03:04:53;98152.00;;;11.90;58.01
65756;BME280;69208;47.502;18.940;2023-05-11T03:05:56;98160.06;;;11.80;57.83
65756;BME280;69208;47.502;18.940;2023-05-11T03:06:59;98167.75;;;11.90;57.85
65756;BME280;69208;47.502;18.940;2023-05-11T03:08:02;98159.69;;;11.87;57.35
65756;BME280;69208;47.502;18.940;2023-05-11T03:09:05;98151.59;;;11.83;56.99
65756;BME280;69208;47.502;18.940;2023-05-11T03:10:11;98156.47;;;11.90;56.62
65756;BME280;69208;47.502;18.940;2023-05-11T03:11:15;98159.19;;;11.84;58.06
65756;BME280;69208;47.502;18.940;2023-05-11T03:12:19;98162.34;;;11.73;59.28
65756;BME280;69208;47.502;18.940;2023-05-11T03:13:23;98162.34;;;11.73;59.19
65756;BME280;69208;47.502;18.940;2023-05-11T03:14:27;98160.31;;;11.70;59.03
65756;BME280;69208;47.502;18.940;2023-05-11T03:15:31;98160.75;;;11.63;59.32
65756;BME280;69208;47.502;18.940;2023-05-11T03:16:36;98164.31;;;11.67;58.81
65756;BME280;69208;47.502;18.940;2023-05-11T03:17:40;98164.03;;;11.69;59.75
65756;BME280;69208;47.502;18.940;2023-05-11T03:18:43;98158.91;;;11.64;60.64
65756;BME280;69208;47.502;18.940;2023-05-11T03:19:47;98159.38;;;11.66;59.98
65756;BME280;69208;47.502;18.940;2023-05-11T03:20:51;98156.56;;;11.62;59.02
65756;BME280;69208;47.502;18.940;2023-05-11T03:21:57;98159.38;;;11.66;58.55
65756;BME280;69208;47.502;18.940;2023-05-11T03:23:00;98165.34;;;11.57;60.73
65756;BME280;69208;47.502;18.940;2023-05-11T03:24:05;98165.56;;;11.47;61.20
65756;BME280;69208;47.502;18.940;2023-05-11T03:25:09;98166.53;;;11.51;61.19
65756;BME280;69208;47.502;18.940;2023-05-11T03:26:18;98169.59;;;11.53;60.98
65756;BME280;69208;47.502;18.940;2023-05-11T03:27:23;98175.16;;;11.52;61.25
65756;BME280;69208;47.502;18.940;2023-05-11T03:28:28;98175.28;;;11.47;60.66
65756;BME280;69208;47.502;18.940;2023-05-11T03:29:32;98166.22;;;11.53;59.52
65756;BME280;69208;47.502;18.940;2023-05-11T03:30:42;98173.81;;;11.54;58.89
65756;BME280;69208;47.502;18.940;2023-05-11T03:31:46;98177.72;;;11.43;62.50
65756;BME280;69208;47.502;18.940;2023-05-11T03:32:53;98168.91;;;11.39;61.53
65756;BME280;69208;47.502;18.940;2023-05-11T03:33:56;98170.72;;;11.38;61.95
65756;BME280;69208;47.502;18.940;2023-05-11T03:34:59;98171.09;;;11.46;62.64
65756;BME280;69208;47.502;18.940;2023-05-11T03:36:03;98172.56;;;11.38;62.81
65756;BME280;69208;47.502;18.940;2023-05-11T03:37:09;98173.50;;;11.56;61.18
65756;BME280;69208;47.502;18.940;2023-05-11T03:38:15;98164.75;;;11.60;61.14
65756;BME280;69208;47.502;18.940;2023-05-11T03:39:20;98172.37;;;11.48;61.48
65756;BME280;69208;47.502;18.940;2023-05-11T03:40:24;98169.81;;;11.57;62.20
65756;BME280;69208;47.502;18.940;2023-05-11T03:41:30;98171.63;;;11.56;61.24
65756;BME280;69208;47.502;18.940;2023-05-11T03:42:34;98167.56;;;11.50;61.51
65756;BME280;69208;47.502;18.940;2023-05-11T03:43:39;98171.47;;;11.53;60.94
65756;BME280;69208;47.502;18.940;2023-05-11T03:44:45;98171.84;;;11.60;60.77
65756;BME280;69208;47.502;18.940;2023-05-11T03:45:50;98182.25;;;11.51;60.75
65756;BME280;69208;47.502;18.940;2023-05-11T03:46:55;98176.41;;;11.54;61.10
65756;BME280;69208;47.502;18.940;2023-05-11T03:47:59;98174.63;;;11.64;61.67
65756;BME280;69208;47.502;18.940;2023-05-11T03:49:03;98171.31;;;11.72;60.21
65756;BME280;69208;47.502;18.940;2023-05-11T03:50:07;98168.12;;;11.61;60.19
65756;BME280;69208;47.502;18.940;2023-05-11T03:51:11;98170.88;;;11.56;61.46
65756;BME280;69208;47.502;18.940;2023-05-11T03:52:15;98169.50;;;11.58;60.81
65756;BME280;69208;47.502;18.940;2023-05-11T03:53:18;98163.19;;;11.59;60.13
65756;BME280;69208;47.502;18.940;2023-05-11T03:54:22;98167.66;;;11.59;60.68
65756;BME280;69208;47.502;18.940;2023-05-11T03:55:25;98171.09;;;11.68;60.52
65756;BME280;69208;47.502;18.940;2023-05-11T03:56:28;98175.41;;;11.64;60.57
65756;BME280;69208;47.502;18.940;2023-05-11T03:57:31;98167.88;;;11.49;60.36
65756;BME280;69208;47.502;18.940;2023-05-11T03:58:38;98162.34;;;11.50;60.63
65756;BME280;69208;47.502;18.940;2023-05-11T03:59:42;98167.56;;;11.50;61.36
65756;BME280;69208;47.502;18.940;2023-05-11T04:00:45;98169.81;;;11.57;61.79
65756;BME280;69208;47.502;18.940;2023-05-11T04:01:48;98168.25;;;11.56;61.80
65756;BME280;69208;47.502;18.940;2023-05-11T04:02:54;98168.25;;;11.56;62.03
65756;BME280;69208;47.502;18.940;2023-05-11T04:03:57;98172.44;;;11.57;62.04
65756;BME280;69208;47.502;18.940;2023-05-11T04:05:09;98169.91;;;11.52;62.32
65756;BME280;69208;47.502;18.940;2023-05-11T04:06:12;98166.97;;;11.53;61.94
65756;BME280;69208;47.502;18.940;2023-05-11T04:07:15;98173.31;;;11.52;61.85
65756;BME280;69208;47.502;18.940;2023-05-11T04:08:18;98169.44;;;11.50;62.24
65756;BME280;69208;47.502;18.940;2023-05-11T04:09:21;98174.50;;;11.46;62.32
65756;BME280;69208;47.502;18.940;2023-05-11T04:10:24;98173.06;;;11.40;61.80
65756;BME280;69208;47.502;18.940;2023-05-11T04:11:28;98171.81;;;11.37;62.03
65756;BME280;69208;47.502;18.940;2023-05-11T04:12:31;98170.69;;;11.30;62.33
65756;BME280;69208;47.502;18.940;2023-05-11T04:13:34;98174.34;;;11.29;62.00
65756;BME280;69208;47.502;18.940;2023-05-11T04:14:37;98174.66;;;11.27;62.20
65756;BME280;69208;47.502;18.940;2023-05-11T04:15:40;98180.00;;;11.22;63.02
65756;BME280;69208;47.502;18.940;2023-05-11T04:16:43;98173.06;;;11.40;62.03
65756;BME280;69208;47.502;18.940;2023-05-11T04:17:46;98173.34;;;11.38;61.91
65756;BME280;69208;47.502;18.940;2023-05-11T04:18:49;98176.47;;;11.41;61.01
65756;BME280;69208;47.502;18.940;2023-05-11T04:19:52;98176.47;;;11.41;62.04
65756;BME280;69208;47.502;18.940;2023-05-11T04:20:55;98179.09;;;11.41;61.19
65756;BME280;69208;47.502;18.940;2023-05-11T04:21:58;98180.84;;;11.31;62.54
65756;BME280;69208;47.502;18.940;2023-05-11T04:23:01;98173.47;;;11.33;62.79
65756;BME280;69208;47.502;18.940;2023-05-11T04:24:04;98182.97;;;11.43;61.73
65756;BME280;69208;47.502;18.940;2023-05-11T04:25:08;98178.97;;;11.46;61.52
65756;BME280;69208;47.502;18.940;2023-05-11T04:26:11;98187.25;;;11.39;62.58
65756;BME280;69208;47.502;18.940;2023-05-11T04:27:14;98188.72;;;11.31;63.35
65756;BME280;69208;47.502;18.940;2023-05-11T04:28:17;98190.09;;;11.29;63.19
65756;BME280;69208;47.502;18.940;2023-05-11T04:29:20;98192.78;;;11.37;62.98
65756;BME280;69208;47.502;18.940;2023-05-11T04:30:23;98186.66;;;11.42;61.63
65756;BME280;69208;47.502;18.940;2023-05-11T04:31:26;98189.56;;;11.41;62.94
65756;BME280;69208;47.502;18.940;2023-05-11T04:32:29;98186.94;;;11.41;62.05
65756;BME280;69208;47.502;18.940;2023-05-11T04:33:32;98189.97;;;11.48;62.06
65756;BME280;69208;47.502;18.940;2023-05-11T04:34:35;98187.44;;;11.43;61.55
65756;BME280;69208;47.502;18.940;2023-05-11T04:35:38;98191.41;;;11.54;60.48
65756;BME280;69208;47.502;18.940;2023-05-11T04:36:41;98189.97;;;11.48;61.14
65756;BME280;69208;47.502;18.940;2023-05-11T04:37:44;98185.88;;;11.42;61.65
65756;BME280;69208;47.502;18.940;2023-05-11T04:38:47;98195.22;;;11.48;61.79
65756;BME280;69208;47.502;18.940;2023-05-11T04:39:50;98191.69;;;11.52;60.82
65756;BME280;69208;47.502;18.940;2023-05-11T04:40:53;98183.31;;;11.50;60.78
65756;BME280;69208;47.502;18.940;2023-05-11T04:41:55;98185.66;;;11.52;61.34
65756;BME280;69208;47.502;18.940;2023-05-11T04:42:58;98195.59;;;11.41;62.20
65756;BME280;69208;47.502;18.940;2023-05-11T04:44:01;98192.22;;;11.27;62.66
65756;BME280;69208;47.502;18.940;2023-05-11T04:45:04;98195.13;;;11.39;62.86
65756;BME280;69208;47.502;18.940;2023-05-11T04:46:08;98201.81;;;11.45;62.31
65756;BME280;69208;47.502;18.940;2023-05-11T04:47:10;98192.50;;;11.39;61.73
65756;BME280;69208;47.502;18.940;2023-05-11T04:48:14;98195.66;;;11.50;62.03
65756;BME280;69208;47.502;18.940;2023-05-11T04:49:22;98194.63;;;11.51;62.26
65756;BME280;69208;47.502;18.940;2023-05-11T04:50:25;98200.44;;;11.70;61.31
65756;BME280;69208;47.502;18.940;2023-05-11T04:51:28;98200.63;;;11.74;60.17
65756;BME280;69208;47.502;18.940;2023-05-11T04:52:31;98194.59;;;11.73;60.01
65756;BME280;69208;47.502;18.940;2023-05-11T04:53:34;98197.22;;;11.73;60.67
65756;BME280;69208;47.502;18.940;2023-05-11T04:54:36;98197.00;;;11.61;61.76
65756;BME280;69208;47.502;18.940;2023-05-11T04:55:40;98199.03;;;11.64;61.25
65756;BME280;69208;47.502;18.940;2023-05-11T04:56:43;98198.53;;;11.62;61.15
65756;BME280;69208;47.502;18.940;2023-05-11T04:57:46;98189.22;;;11.56;60.97
65756;BME280;69208;47.502;18.940;2023-05-11T04:58:49;98192.94;;;11.55;61.33
65756;BME280;69208;47.502;18.940;2023-05-11T04:59:52;98193.53;;;11.52;61.10
65756;BME280;69208;47.502;18.940;2023-05-11T05:00:55;98187.97;;;11.53;60.11
65756;BME280;69208;47.502;18.940;2023-05-11T05:01:58;98193.19;;;11.67;60.26
65756;BME280;69208;47.502;18.940;2023-05-11T05:03:01;98195.03;;;11.67;60.71
65756;BME280;69208;47.502;18.940;2023-05-11T05:04:04;98191.84;;;11.56;61.70
65756;BME280;69208;47.502;18.940;2023-05-11T05:05:07;98194.13;;;11.49;61.79
65756;BME280;69208;47.502;18.940;2023-05-11T05:06:10;98201.16;;;11.62;61.09
65756;BME280;69208;47.502;18.940;2023-05-11T05:07:13;98202.03;;;11.71;60.27
65756;BME280;69208;47.502;18.940;2023-05-11T05:08:16;98199.50;;;11.66;61.21
65756;BME280;69208;47.502;18.940;2023-05-11T05:09:20;98201.09;;;11.90;60.09
65756;BME280;69208;47.502;18.940;2023-05-11T05:10:23;98195.66;;;11.86;60.57
65756;BME280;69208;47.502;18.940;2023-05-11T05:11:26;98199.84;;;11.87;60.31
65756;BME280;69208;47.502;18.940;2023-05-11T05:12:29;98194.44;;;11.70;60.48
65756;BME280;69208;47.502;18.940;2023-05-11T05:13:31;98192.97;;;11.77;60.25
65756;BME280;69208;47.502;18.940;2023-05-11T05:14:34;98201.87;;;11.90;60.09
65756;BME280;69208;47.502;18.940;2023-05-11T05:15:37;98203.31;;;11.82;60.40
65756;BME280;69208;47.502;18.940;2023-05-11T05:16:40;98204.50;;;11.90;60.35
65756;BME280;69208;47.502;18.940;2023-05-11T05:17:43;98198.47;;;11.90;60.58
65756;BME280;69208;47.502;18.940;2023-05-11T05:18:47;98209.91;;;11.94;60.81
65756;BME280;69208;47.502;18.940;2023-05-11T05:19:50;98210.09;;;11.97;61.16
65756;BME280;69208;47.502;18.940;2023-05-11T05:20:52;98211.00;;;11.93;60.38
65756;BME280;69208;47.502;18.940;2023-05-11T05:21:55;98213.91;;;11.91;60.27
65756;BME280;69208;47.502;18.940;2023-05-11T05:22:58;98211.34;;;11.77;60.90
65756;BME280;69208;47.502;18.940;2023-05-11T05:24:01;98208.00;;;11.86;60.85
65756;BME280;69208;47.502;18.940;2023-05-11T05:25:06;98207.28;;;11.94;61.09
65756;BME280;69208;47.502;18.940;2023-05-11T05:26:09;98212.31;;;12.04;60.74
65756;BME280;69208;47.502;18.940;2023-05-11T05:27:13;98210.47;;;12.04;60.21
65756;BME280;69208;47.502;18.940;2023-05-11T05:28:16;98210.84;;;11.98;60.89
65756;BME280;69208;47.502;18.940;2023-05-11T05:29:19;98214.12;;;12.03;60.52
65756;BME280;69208;47.502;18.940;2023-05-11T05:30:21;98208.13;;;12.03;61.17
65756;BME280;69208;47.502;18.940;2023-05-11T05:31:24;98213.69;;;12.01;60.77
65756;BME280;69208;47.502;18.940;2023-05-11T05:32:28;98206.50;;;12.16;60.58
65756;BME280;69208;47.502;18.940;2023-05-11T05:33:31;98209.97;;;12.25;59.55
65756;BME280;69208;47.502;18.940;2023-05-11T05:34:34;98208.91;;;12.35;58.62
65756;BME280;69208;47.502;18.940;2023-05-11T05:35:37;98210.78;;;12.34;58.52
65756;BME280;69208;47.502;18.940;2023-05-11T05:36:40;98210.97;;;12.46;58.07
65756;BME280;69208;47.502;18.940;2023-05-11T05:37:43;98218.53;;;12.48;58.28
65756;BME280;69208;47.502;18.940;2023-05-11T05:38:46;98204.38;;;12.58;57.88
65756;BME280;69208;47.502;18.940;2023-05-11T05:39:49;98204.41;;;12.66;57.82
65756;BME280;69208;47.502;18.940;2023-05-11T05:40:52;98211.22;;;12.67;58.54
65756;BME280;69208;47.502;18.940;2023-05-11T05:41:55;98214.03;;;12.80;58.10
65756;BME280;69208;47.502;18.940;2023-05-11T05:42:58;98205.41;;;12.88;57.29
65756;BME280;69208;47.502;18.940;2023-05-11T05:44:01;98208.16;;;12.74;57.22
65756;BME280;69208;47.502;18.940;2023-05-11T05:45:04;98208.97;;;12.92;55.91
65756;BME280;69208;47.502;18.940;2023-05-11T05:46:07;98207.28;;;12.96;54.72
65756;BME280;69208;47.502;18.940;2023-05-11T05:47:10;98203.06;;;12.86;56.08
65756;BME280;69208;47.502;18.940;2023-05-11T05:48:13;98215.00;;;12.92;56.76
65756;BME280;69208;47.502;18.940;2023-05-11T05:49:16;98211.47;;;12.97;54.73